Time;durP1;ratioP1;P1;durP2;ratioP2;P2;SDS_P1;SDS_P2;PMS_P1;PMS_P2;Temp;Humidity;BMP_temperature;BMP_pressure;BME280_temperature;BME280_humidity;BME280_pressure;Samples;Min_cycle;Max_cycle;Signal;HPM_P1;HPM_P2
2022/03/17 00:01:03;;;;;;;26.25;19.48;;;;;;;10.49;71.79;101857.06;5006612;28;20047;-72
2022/03/17 00:03:29;;;;;;;25.10;19.00;;;;;;;10.49;72.02;101846.53;5007076;28;20424;-73
2022/03/17 00:05:54;;;;;;;23.95;18.95;;;;;;;10.48;71.74;101847.47;5027887;28;20112;-73
2022/03/17 00:08:19;;;;;;;23.30;18.85;;;;;;;10.47;72.17;101848.41;5028031;28;20200;-73
2022/03/17 00:10:45;;;;;;;24.58;19.48;;;;;;;10.47;72.31;101842.28;5028349;28;20056;-73
2022/03/17 00:13:11;;;;;;;24.95;19.30;;;;;;;10.46;72.27;101835.34;5022458;28;20055;-73
2022/03/17 00:15:39;;;;;;;28.55;19.98;;;;;;;10.46;72.14;101841.44;4988862;28;20129;-73
2022/03/17 00:18:04;;;;;;;28.10;19.42;;;;;;;10.45;72.40;101839.75;5018290;28;20035;-72
2022/03/17 00:20:30;;;;;;;25.95;19.63;;;;;;;10.45;72.66;101838.91;5028552;28;20537;-73
2022/03/17 00:22:55;;;;;;;25.63;20.13;;;;;;;10.45;72.19;101842.38;5027613;28;20233;-73
2022/03/17 00:25:21;;;;;;;24.15;20.05;;;;;;;10.44;72.64;101838.06;5014433;28;20026;-73
2022/03/17 00:27:46;;;;;;;28.02;20.00;;;;;;;10.44;72.55;101843.31;4992362;28;20537;-73
2022/03/17 00:30:12;;;;;;;27.13;19.83;;;;;;;10.44;72.93;101838.06;4993052;28;20448;-73
2022/03/17 00:32:40;;;;;;;26.45;19.67;;;;;;;10.42;72.93;101845.19;4998842;28;20030;-73
2022/03/17 00:37:51;;;;;;;25.42;19.60;;;;;;;10.40;73.14;101836.50;5012560;28;20516;-73
2022/03/17 00:40:17;;;;;;;26.23;20.27;;;;;;;10.40;73.04;101841.78;5011332;28;20014;-73
2022/03/17 00:42:43;;;;;;;28.23;20.65;;;;;;;10.39;72.99;101845.34;5011751;28;20041;-73
2022/03/17 00:45:12;;;;;;;28.67;20.25;;;;;;;10.36;73.16;101838.47;5009262;28;20390;-73
2022/03/17 00:47:38;;;;;;;27.70;20.63;;;;;;;10.34;72.97;101842.97;5009375;28;20030;-73
2022/03/17 00:50:05;;;;;;;26.02;20.42;;;;;;;10.34;73.18;101852.66;5009003;28;20478;-72
2022/03/17 00:52:30;;;;;;;23.95;19.60;;;;;;;10.33;73.55;101845.69;5012809;28;20437;-73
2022/03/17 00:54:55;;;;;;;27.77;20.02;;;;;;;10.32;73.46;101847.47;5012592;28;20025;-72
2022/03/17 00:57:21;;;;;;;26.35;20.70;;;;;;;10.30;73.33;101856.38;5012412;28;20064;-72
2022/03/17 00:59:48;;;;;;;25.48;20.15;;;;;;;10.28;74.04;101859.09;5012196;28;20034;-73
2022/03/17 01:02:14;;;;;;;28.02;20.65;;;;;;;10.28;73.63;101848.59;5012948;28;20022;-72
2022/03/17 01:04:39;;;;;;;28.60;20.58;;;;;;;10.27;73.91;101856.56;5011960;28;20025;-72
2022/03/17 01:07:04;;;;;;;27.95;20.60;;;;;;;10.25;73.90;101855.81;5010999;28;20033;-72
2022/03/17 01:09:30;;;;;;;25.10;20.08;;;;;;;10.23;73.79;101855.03;5012678;28;20076;-72
2022/03/17 01:11:56;;;;;;;26.58;20.55;;;;;;;10.20;74.07;101852.56;5011551;28;20024;-72
2022/03/17 01:14:21;;;;;;;33.97;21.15;;;;;;;10.21;74.32;101854.28;5010707;28;20098;-72
2022/03/17 01:16:47;;;;;;;27.75;21.10;;;;;;;10.19;74.89;101850.84;5011425;28;20034;-72
2022/03/17 01:19:12;;;;;;;29.13;21.77;;;;;;;10.20;74.61;101847.28;5009900;28;20030;-72
2022/03/17 01:21:38;;;;;;;29.15;21.40;;;;;;;10.19;74.90;101842.97;5011095;28;20374;-72
2022/03/17 01:24:03;;;;;;;30.95;21.23;;;;;;;10.18;74.96;101836.88;5015923;28;20052;-72
2022/03/17 01:26:29;;;;;;;28.15;21.23;;;;;;;10.18;75.00;101842.13;5010588;28;20061;-72
2022/03/17 01:28:54;;;;;;;28.50;21.15;;;;;;;10.17;75.57;101844.84;5011758;28;20037;-72
2022/03/17 01:31:24;;;;;;;27.42;20.92;;;;;;;10.18;75.74;101852.63;5010630;28;20294;-73
2022/03/17 01:33:49;;;;;;;32.13;21.38;;;;;;;10.18;75.74;101851.78;5011412;28;20022;-72
2022/03/17 01:36:15;;;;;;;27.25;21.02;;;;;;;10.19;75.50;101851.72;5010540;28;20300;-72
2022/03/17 01:38:40;;;;;;;29.05;21.35;;;;;;;10.19;75.72;101838.56;5010657;28;20105;-73
2022/03/17 01:41:05;;;;;;;31.60;21.25;;;;;;;10.19;75.82;101841.19;5011194;28;20363;-73
2022/03/17 01:43:31;;;;;;;29.73;21.35;;;;;;;10.20;76.31;101847.28;5010413;28;20034;-73
2022/03/17 01:45:56;;;;;;;25.02;21.30;;;;;;;10.19;75.91;101845.59;5008962;28;20120;-72
2022/03/17 01:48:21;;;;;;;29.88;21.38;;;;;;;10.18;76.32;101850.00;5009914;28;20057;-73
2022/03/17 01:50:48;;;;;;;31.27;22.08;;;;;;;10.19;76.67;101858.75;4993178;28;20026;-73
2022/03/17 01:53:14;;;;;;;28.75;21.23;;;;;;;10.19;76.68;101849.06;5011046;28;20034;-73
2022/03/17 01:55:39;;;;;;;27.42;21.48;;;;;;;10.19;77.02;101846.44;5011526;28;20784;-73
2022/03/17 01:58:05;;;;;;;26.65;21.58;;;;;;;10.20;76.86;101853.44;5011539;28;20109;-73
2022/03/17 02:00:30;;;;;;;29.10;22.35;;;;;;;10.20;76.96;101839.41;5010057;28;20402;-73
2022/03/17 02:02:55;;;;;;;35.35;21.92;;;;;;;10.20;77.29;101839.41;5011729;28;20045;-73
2022/03/17 02:05:21;;;;;;;32.80;21.73;;;;;;;10.20;77.44;101844.66;5006415;28;20029;-73
2022/03/17 02:07:51;;;;;;;29.02;21.13;;;;;;;10.20;77.57;101847.28;5010908;28;20068;-73
2022/03/17 02:10:17;;;;;;;28.75;22.05;;;;;;;10.21;77.79;101843.75;5002229;28;20049;-73
2022/03/17 02:15:27;;;;;;;29.88;21.52;;;;;;;10.21;77.86;101856.91;4992671;28;20738;-73
2022/03/17 02:17:53;;;;;;;29.67;21.88;;;;;;;10.20;78.03;101855.19;4991826;28;20058;-73
2022/03/17 02:20:20;;;;;;;29.92;21.77;;;;;;;10.19;78.19;101856.13;4994182;28;20022;-73
2022/03/17 02:22:48;;;;;;;30.48;22.27;;;;;;;10.18;78.64;101855.28;5010060;28;20146;-73
2022/03/17 02:25:39;;;;;;;31.08;21.10;;;;;;;10.19;78.25;101856.13;5010293;28;20057;-73
2022/03/17 02:28:07;;;;;;;30.45;22.95;;;;;;;10.19;78.64;101869.28;4990009;28;20029;-73
2022/03/17 02:30:35;;;;;;;29.75;22.83;;;;;;;10.18;79.13;101870.19;4999795;28;20034;-73
2022/03/17 02:33:07;;;;;;;32.58;22.48;;;;;;;10.18;79.50;101875.47;4995559;28;20030;-73
2022/03/17 02:35:37;;;;;;;35.03;23.23;;;;;;;10.18;79.76;101878.94;4990366;28;20060;-73
2022/03/17 02:38:04;;;;;;;32.28;23.90;;;;;;;10.19;79.86;101879.78;5003176;28;20044;-73
2022/03/17 02:40:32;;;;;;;35.83;24.02;;;;;;;10.19;81.07;101885.06;5010777;28;20018;-73
2022/03/17 02:42:57;;;;;;;36.33;24.60;;;;;;;10.21;81.59;101888.47;5009481;28;20380;-73
2022/03/17 02:45:23;;;;;;;35.55;24.63;;;;;;;10.25;81.82;101890.00;4998210;28;20030;-73
2022/03/17 02:47:48;;;;;;;43.97;28.02;;;;;;;10.29;82.83;101892.38;4988548;28;20399;-73
2022/03/17 02:50:14;;;;;;;42.10;27.98;;;;;;;10.35;83.53;101893.81;4993039;28;20026;-73
2022/03/17 02:52:40;;;;;;;42.70;30.67;;;;;;;10.39;85.24;101908.47;5009590;28;20022;-73
2022/03/17 02:55:08;;;;;;;44.10;29.95;;;;;;;10.44;85.91;101902.97;5008804;28;20033;-72
2022/03/17 02:57:33;;;;;;;45.38;32.17;;;;;;;10.50;87.17;101910.53;5009451;28;20030;-73
2022/03/17 02:59:59;;;;;;;46.25;31.77;;;;;;;10.53;87.21;101927.00;5010275;28;20036;-73
2022/03/17 03:02:24;;;;;;;49.00;28.95;;;;;;;10.53;87.32;101932.25;5018475;28;20112;-73
2022/03/17 03:04:50;;;;;;;30.83;25.40;;;;;;;10.55;87.59;101930.38;5000269;28;20345;-72
2022/03/17 03:07:16;;;;;;;33.92;24.63;;;;;;;10.54;88.16;101936.56;4989752;28;20100;-73
2022/03/17 03:09:42;;;;;;;33.45;22.73;;;;;;;10.51;88.75;101944.66;4989921;28;20755;-73
2022/03/17 03:12:08;;;;;;;26.90;20.27;;;;;;;10.46;89.22;101951.94;4990720;28;20041;-73
2022/03/17 03:14:33;;;;;;;22.60;18.50;;;;;;;10.42;89.73;101957.47;4991232;28;20052;-73
2022/03/17 03:16:59;;;;;;;24.63;18.75;;;;;;;10.38;89.91;101969.91;4989871;28;20471;-73
2022/03/17 03:19:24;;;;;;;21.02;17.35;;;;;;;10.35;90.31;101976.19;4990673;28;20025;-73
2022/03/17 03:21:50;;;;;;;21.90;17.80;;;;;;;10.32;90.35;101988.66;4990457;28;20414;-73
2022/03/17 03:24:16;;;;;;;19.80;17.17;;;;;;;10.26;91.29;102002.16;4990858;28;20031;-73
2022/03/17 03:26:43;;;;;;;18.98;15.77;;;;;;;10.22;91.63;101998.00;4990305;28;20030;-73
2022/03/17 03:29:21;;;;;;;18.13;15.77;;;;;;;10.16;91.89;102004.41;4990487;28;20031;-73
2022/03/17 03:31:49;;;;;;;17.27;15.32;;;;;;;10.10;91.66;102012.63;4989360;28;20027;-73
2022/03/17 03:34:14;;;;;;;16.45;14.82;;;;;;;10.03;91.11;102009.50;4989638;28;20030;-72
2022/03/17 03:39:23;;;;;;;17.48;14.73;;;;;;;9.91;91.47;102027.66;5008890;28;20551;-72
2022/03/17 03:41:48;;;;;;;19.17;15.98;;;;;;;9.87;91.82;102029.59;5008980;28;20018;-72
2022/03/17 03:44:14;;;;;;;18.00;16.10;;;;;;;9.83;91.17;102040.38;5006882;28;20018;-72
2022/03/17 03:46:40;;;;;;;18.60;16.15;;;;;;;9.77;91.47;102052.03;4988691;28;20026;-74
2022/03/17 03:49:05;;;;;;;18.70;16.05;;;;;;;9.74;91.47;102054.84;4989171;28;20037;-74
2022/03/17 03:51:31;;;;;;;18.85;15.77;;;;;;;9.67;91.14;102067.44;5002766;28;20026;-72
2022/03/17 03:56:41;;;;;;;19.63;17.17;;;;;;;9.55;91.28;102082.94;5008891;28;20063;-74
2022/03/17 03:59:08;;;;;;;23.17;18.02;;;;;;;9.46;91.44;102099.19;5007993;28;20029;-74
2022/03/17 04:01:33;;;;;;;23.65;19.17;;;;;;;9.41;90.84;102099.41;5009373;28;20143;-74
2022/03/17 04:04:01;;;;;;;30.35;21.75;;;;;;;9.35;90.43;102107.59;5007604;28;20116;-74
2022/03/17 04:06:26;;;;;;;31.35;21.85;;;;;;;9.27;90.42;102115.84;4993726;28;20029;-74
2022/03/17 04:08:52;;;;;;;29.90;20.40;;;;;;;9.24;90.77;102121.25;4995909;28;20030;-74
2022/03/17 04:11:17;;;;;;;28.20;20.65;;;;;;;9.18;91.00;102126.75;5008311;28;20062;-74
2022/03/17 04:13:42;;;;;;;30.33;21.17;;;;;;;9.14;90.92;102142.72;5001467;28;20084;-73
2022/03/17 04:16:09;;;;;;;28.95;21.08;;;;;;;9.06;91.51;102138.69;4989812;28;20038;-74
2022/03/17 04:18:34;;;;;;;28.95;21.13;;;;;;;9.03;91.61;102157.22;4989610;28;20053;-74
2022/03/17 04:20:59;;;;;;;26.10;20.73;;;;;;;8.99;90.98;102157.44;4989181;28;20501;-74
2022/03/17 04:23:25;;;;;;;29.35;20.20;;;;;;;8.94;91.48;102167.31;4989754;28;20026;-73
2022/03/17 04:25:50;;;;;;;27.25;17.95;;;;;;;8.85;90.50;102186.09;4988460;28;20030;-74
2022/03/17 04:28:16;;;;;;;25.55;17.92;;;;;;;8.79;90.88;102188.06;4988857;28;20035;-74
2022/03/17 04:30:41;;;;;;;24.88;17.27;;;;;;;8.76;89.98;102198.69;4989699;28;20037;-73
2022/03/17 04:33:06;;;;;;;26.30;17.90;;;;;;;8.71;90.22;102203.28;4989508;28;20030;-74
2022/03/17 04:35:32;;;;;;;29.05;17.83;;;;;;;8.62;89.98;102208.09;4989320;28;20443;-74
2022/03/17 04:37:57;;;;;;;30.80;17.65;;;;;;;8.54;89.89;102208.44;5000946;28;20569;-74
2022/03/17 04:40:23;;;;;;;29.80;17.75;;;;;;;8.51;90.13;102223.47;5009422;28;20080;-74
2022/03/17 04:42:48;;;;;;;27.75;17.40;;;;;;;8.45;90.22;102227.22;5006865;28;20017;-74
2022/03/17 04:45:14;;;;;;;29.35;17.38;;;;;;;8.40;90.32;102227.38;5006910;28;20049;-74
2022/03/17 04:47:39;;;;;;;28.77;16.38;;;;;;;8.32;89.67;102234.69;5007390;28;20034;-74
2022/03/17 04:50:06;;;;;;;24.92;14.60;;;;;;;8.30;89.26;102240.91;5007622;28;20030;-74
2022/03/17 04:55:15;;;;;;;27.63;13.77;;;;;;;8.23;88.74;102250.81;5008058;28;20874;-74
2022/03/17 04:57:40;;;;;;;27.67;14.35;;;;;;;8.21;88.61;102267.53;5008064;28;20026;-74
2022/03/17 05:00:06;;;;;;;28.30;15.40;;;;;;;8.16;88.93;102268.56;5006714;28;20026;-74
2022/03/17 05:02:32;;;;;;;24.25;15.82;;;;;;;8.12;88.37;102287.97;4996201;28;20100;-72
2022/03/17 05:04:57;;;;;;;26.83;15.55;;;;;;;8.10;88.34;102289.81;5014280;28;20470;-73
2022/03/17 05:07:22;;;;;;;24.65;14.82;;;;;;;8.10;88.61;102302.06;5015289;28;20056;-73
2022/03/17 05:09:48;;;;;;;22.73;13.38;;;;;;;8.07;88.17;102303.03;5006646;28;20118;-73
2022/03/17 05:12:13;;;;;;;23.80;13.30;;;;;;;8.07;88.12;102324.00;5010840;28;20084;-73
2022/03/17 05:14:38;;;;;;;23.70;12.98;;;;;;;8.02;87.59;102331.19;5001745;28;20662;-73
2022/03/17 05:17:04;;;;;;;22.20;12.88;;;;;;;7.99;87.42;102344.41;5008609;28;20045;-72
2022/03/17 05:19:29;;;;;;;24.90;11.10;;;;;;;7.97;86.83;102354.09;5010717;28;20029;-72
2022/03/17 05:21:54;;;;;;;19.60;9.43;;;;;;;7.94;86.44;102359.44;5009394;28;20025;-73
2022/03/17 05:24:20;;;;;;;21.30;8.88;;;;;;;7.91;85.86;102361.34;5025279;28;20324;-73
2022/03/17 05:26:45;;;;;;;23.20;8.05;;;;;;;7.88;85.22;102370.19;5028866;28;20079;-73
2022/03/17 05:29:12;;;;;;;16.13;6.40;;;;;;;7.83;85.07;102374.75;5000014;28;20026;-73
2022/03/17 05:31:37;;;;;;;20.02;6.05;;;;;;;7.83;84.80;102372.13;4993120;28;20029;-73
2022/03/17 05:34:03;;;;;;;16.52;5.70;;;;;;;7.78;84.43;102379.31;5010859;28;20034;-73
2022/03/17 05:36:28;;;;;;;13.05;5.80;;;;;;;7.78;84.74;102387.16;5012280;28;20044;-73
2022/03/17 05:38:53;;;;;;;17.63;6.45;;;;;;;7.75;84.50;102392.53;5012842;28;20022;-73
2022/03/17 05:41:19;;;;;;;14.30;5.65;;;;;;;7.74;83.93;102401.28;5031992;28;20021;-72
2022/03/17 05:43:44;;;;;;;13.05;5.60;;;;;;;7.73;83.81;102410.06;5031784;28;20072;-73
2022/03/17 05:46:10;;;;;;;11.48;4.90;;;;;;;7.69;83.44;102422.44;5012150;28;20030;-73
2022/03/17 05:48:35;;;;;;;13.98;4.72;;;;;;;7.68;83.66;102422.47;5011481;28;20034;-72
2022/03/17 05:51:00;;;;;;;15.02;4.82;;;;;;;7.66;84.08;102427.78;5012021;28;20017;-73
2022/03/17 05:53:26;;;;;;;15.32;5.78;;;;;;;7.66;83.44;102440.03;5024773;28;20473;-73
2022/03/17 05:55:51;;;;;;;14.95;6.07;;;;;;;7.64;83.05;102439.22;5029526;28;20029;-72
2022/03/17 05:58:17;;;;;;;13.70;6.30;;;;;;;7.63;83.37;102442.75;5020219;28;20113;-73
2022/03/17 06:00:42;;;;;;;15.27;7.00;;;;;;;7.63;83.75;102453.22;5009209;28;20076;-73
2022/03/17 06:03:07;;;;;;;12.60;5.80;;;;;;;7.62;83.71;102462.00;5011179;28;20026;-73
2022/03/17 06:05:33;;;;;;;14.55;6.15;;;;;;;7.62;83.71;102456.75;5005342;28;20054;-73
2022/03/17 06:08:00;;;;;;;15.77;5.50;;;;;;;7.60;84.28;102467.25;4991384;28;20030;-73
2022/03/17 06:10:28;;;;;;;13.50;5.90;;;;;;;7.60;84.06;102484.75;4990409;28;20065;-73
2022/03/17 06:12:55;;;;;;;10.98;5.60;;;;;;;7.57;84.65;102487.47;4990543;28;20068;-73
2022/03/17 06:15:23;;;;;;;12.02;5.28;;;;;;;7.55;84.69;102491.00;4989952;28;20172;-73
2022/03/17 06:17:50;;;;;;;16.42;5.70;;;;;;;7.54;85.11;102494.53;4989517;28;20479;-73
2022/03/17 06:20:18;;;;;;;10.30;4.85;;;;;;;7.54;84.96;102496.28;4989726;28;20209;-73
2022/03/17 06:22:46;;;;;;;13.55;4.97;;;;;;;7.51;85.51;102502.50;4993918;28;20018;-73
2022/03/17 06:25:14;;;;;;;12.38;5.55;;;;;;;7.51;85.45;102506.88;5011270;28;20552;-73
2022/03/17 06:27:42;;;;;;;12.00;5.60;;;;;;;7.49;85.48;102517.41;5008271;28;20032;-75
2022/03/17 06:30:14;;;;;;;11.73;5.28;;;;;;;7.50;85.40;102520.88;4991597;28;20034;-75
2022/03/17 06:32:40;;;;;;;13.63;5.00;;;;;;;7.48;85.81;102523.56;4991314;28;20035;-73
2022/03/17 06:35:08;;;;;;;13.32;5.38;;;;;;;7.48;85.12;102533.19;4990764;28;20037;-73
2022/03/17 06:37:33;;;;;;;10.70;4.40;;;;;;;7.46;84.45;102538.47;5000177;28;20065;-73
2022/03/17 06:39:58;;;;;;;10.63;4.07;;;;;;;7.44;84.37;102548.13;5008756;28;20030;-73
2022/03/17 06:42:24;;;;;;;10.73;4.55;;;;;;;7.44;84.70;102556.00;5010435;28;20080;-73
2022/03/17 06:44:49;;;;;;;14.05;4.97;;;;;;;7.43;84.39;102551.66;5009413;28;20022;-73
2022/03/17 06:47:14;;;;;;;11.82;4.93;;;;;;;7.42;84.45;102565.66;5010434;28;20405;-73
2022/03/17 06:49:40;;;;;;;10.70;5.22;;;;;;;7.41;84.00;102569.19;5009708;28;20026;-73
2022/03/17 06:52:05;;;;;;;15.20;5.35;;;;;;;7.42;84.48;102576.16;5010268;28;20042;-72
2022/03/17 06:54:31;;;;;;;11.68;4.95;;;;;;;7.41;84.21;102587.53;5007194;28;20041;-73
2022/03/17 06:56:56;;;;;;;11.98;5.28;;;;;;;7.42;84.68;102586.63;5001725;28;20027;-73
2022/03/17 06:59:22;;;;;;;13.85;4.97;;;;;;;7.41;84.01;102581.44;4970941;28;20117;-73
2022/03/17 07:01:47;;;;;;;12.00;4.05;;;;;;;7.41;83.56;102597.16;4978971;28;20034;-72
2022/03/17 07:04:12;;;;;;;10.07;3.90;;;;;;;7.42;82.94;102604.09;4990133;28;20040;-73
2022/03/17 07:06:38;;;;;;;11.68;4.25;;;;;;;7.43;83.27;102604.03;4977619;28;20407;-73
2022/03/17 07:09:03;;;;;;;9.02;3.22;;;;;;;7.43;82.78;102613.66;4983530;28;20029;-73
2022/03/17 07:11:28;;;;;;;11.05;2.83;;;;;;;7.45;82.18;102622.31;4983331;28;20073;-73
2022/03/17 07:13:53;;;;;;;14.18;2.70;;;;;;;7.44;82.30;102618.84;4977424;28;20522;-73
2022/03/17 07:16:19;;;;;;;10.90;2.70;;;;;;;7.44;81.32;102624.09;4979858;28;20528;-73
2022/03/17 07:18:44;;;;;;;9.13;2.15;;;;;;;7.42;81.16;102628.50;4979718;28;20022;-72
2022/03/17 07:21:10;;;;;;;8.68;2.47;;;;;;;7.41;82.18;102637.28;4979589;28;20018;-72
2022/03/17 07:23:35;;;;;;;10.73;2.85;;;;;;;7.39;81.47;102636.47;4980701;28;20032;-72
2022/03/17 07:26:02;;;;;;;9.32;2.97;;;;;;;7.40;81.93;102646.03;4980412;28;20060;-72
2022/03/17 07:28:28;;;;;;;9.32;2.50;;;;;;;7.40;82.26;102653.91;4980255;28;20031;-72
2022/03/17 07:30:53;;;;;;;11.43;2.90;;;;;;;7.38;83.00;102658.31;4977949;28;20546;-73
2022/03/17 07:33:18;;;;;;;9.32;2.65;;;;;;;7.41;83.32;102668.72;4980869;28;20030;-73
2022/03/17 07:35:43;;;;;;;8.05;2.75;;;;;;;7.40;82.69;102671.38;4976407;28;20214;-74
2022/03/17 07:38:09;;;;;;;9.68;2.50;;;;;;;7.40;83.13;102684.47;4983368;28;20026;-74
2022/03/17 07:40:34;;;;;;;8.73;2.50;;;;;;;7.42;83.15;102683.50;4988835;28;20033;-74
2022/03/17 07:43:02;;;;;;;12.57;2.53;;;;;;;7.42;82.37;102694.00;4973920;28;20089;-73
2022/03/17 07:45:27;;;;;;;8.20;2.13;;;;;;;7.42;82.42;102696.59;4982667;28;20040;-73
2022/03/17 07:47:53;;;;;;;13.95;2.22;;;;;;;7.42;81.99;102696.59;4990375;28;20364;-73
2022/03/17 07:50:19;;;;;;;12.38;2.35;;;;;;;7.45;81.89;102693.03;4989687;28;20030;-73
2022/03/17 07:52:45;;;;;;;11.38;2.15;;;;;;;7.47;82.20;102705.16;4989165;28;20027;-73
2022/03/17 07:55:10;;;;;;;10.30;2.20;;;;;;;7.48;81.93;102706.88;4989980;28;20025;-73
2022/03/17 07:57:37;;;;;;;9.75;2.10;;;;;;;7.51;81.90;102712.03;4989887;28;20030;-73
2022/03/17 08:00:05;;;;;;;11.73;2.00;;;;;;;7.51;81.35;102714.66;4988594;28;20022;-72
2022/03/17 08:02:31;;;;;;;14.40;2.00;;;;;;;7.55;81.72;102713.63;4989727;28;20387;-73
2022/03/17 08:04:57;;;;;;;13.38;2.20;;;;;;;7.58;80.93;102724.94;4981612;28;20034;-72
2022/03/17 08:07:23;;;;;;;15.10;1.80;;;;;;;7.59;80.00;102731.88;4969968;28;20038;-73
2022/03/17 08:09:48;;;;;;;15.45;2.25;;;;;;;7.61;79.85;102740.56;4981657;28;20026;-72
2022/03/17 08:12:13;;;;;;;11.70;2.03;;;;;;;7.62;80.04;102734.44;4988201;28;20029;-73
2022/03/17 08:14:39;;;;;;;12.75;2.03;;;;;;;7.65;80.13;102734.34;4988742;28;20533;-73
2022/03/17 08:17:04;;;;;;;9.57;1.77;;;;;;;7.66;79.22;102747.38;4989172;28;20022;-72
2022/03/17 08:19:31;;;;;;;13.15;2.05;;;;;;;7.69;79.12;102749.91;4988765;28;20042;-73
2022/03/17 08:21:57;;;;;;;10.18;1.50;;;;;;;7.70;78.13;102756.00;4989114;28;20514;-72
2022/03/17 08:24:22;;;;;;;9.50;1.50;;;;;;;7.71;77.51;102762.97;4988192;28;20455;-72
2022/03/17 08:26:48;;;;;;;7.63;1.65;;;;;;;7.74;76.83;102775.97;4988589;28;20033;-73
2022/03/17 08:29:14;;;;;;;8.15;1.52;;;;;;;7.75;74.64;102780.28;4989400;28;20084;-73
2022/03/17 08:31:39;;;;;;;13.00;1.60;;;;;;;7.78;75.10;102783.66;4988387;28;20030;-73
2022/03/17 08:34:05;;;;;;;12.43;1.95;;;;;;;7.82;74.10;102789.69;4989003;28;20038;-74
2022/03/17 08:36:30;;;;;;;7.97;1.45;;;;;;;7.86;74.59;102791.28;4989832;28;20051;-72
2022/03/17 08:38:56;;;;;;;12.68;1.63;;;;;;;7.90;74.32;102798.16;4989700;28;20267;-70
2022/03/17 08:41:21;;;;;;;7.50;1.38;;;;;;;7.93;73.56;102807.69;4989249;28;20097;-71
2022/03/17 08:43:47;;;;;;;10.20;1.77;;;;;;;7.97;72.06;102818.00;4983119;28;20022;-72
2022/03/17 08:51:41;;;;;;;9.88;1.67;;;;;;;8.02;71.64;102829.25;4993410;28;20514;-72
2022/03/17 08:54:06;;;;;;;16.52;1.85;;;;;;;8.05;71.72;102817.78;4992645;28;20026;-74
2022/03/17 08:56:36;;;;;;;13.07;2.08;;;;;;;8.08;71.24;102826.41;4993674;28;20037;-73
2022/03/17 08:59:02;;;;;;;11.57;1.90;;;;;;;8.11;71.39;102828.94;4991228;28;20072;-72
2022/03/17 09:01:27;;;;;;;8.50;2.22;;;;;;;8.13;71.00;102835.00;4983852;28;20023;-72
2022/03/17 09:03:53;;;;;;;11.98;1.55;;;;;;;8.17;71.00;102835.75;4981859;28;20026;-72
2022/03/17 09:06:18;;;;;;;10.98;1.80;;;;;;;8.18;70.79;102840.94;4992342;28;20505;-72
2022/03/17 09:08:43;;;;;;;11.68;1.50;;;;;;;8.17;70.45;102849.72;4981464;28;20038;-73
2022/03/17 09:11:13;;;;;;;11.55;2.20;;;;;;;8.18;69.26;102847.94;4988259;28;20029;-73
2022/03/17 09:13:39;;;;;;;9.02;1.85;;;;;;;8.18;68.99;102846.19;4989128;28;20041;-72
2022/03/17 09:16:05;;;;;;;10.93;2.00;;;;;;;8.20;69.21;102853.16;4986673;28;20034;-72
2022/03/17 09:18:32;;;;;;;8.82;1.42;;;;;;;8.23;69.81;102863.53;4986643;28;20065;-72
2022/03/17 09:21:00;;;;;;;13.88;1.92;;;;;;;8.24;69.97;102867.88;4991354;28;20469;-72
2022/03/17 09:23:25;;;;;;;13.05;1.92;;;;;;;8.25;69.92;102873.06;4989257;28;20467;-72
2022/03/17 09:25:52;;;;;;;8.85;1.90;;;;;;;8.31;70.42;102882.50;4991648;28;20041;-72
2022/03/17 09:28:17;;;;;;;15.40;1.70;;;;;;;8.35;70.70;102874.50;4990087;28;20022;-71
2022/03/17 09:30:43;;;;;;;13.23;2.17;;;;;;;8.35;69.33;102878.91;4990003;28;20088;-71
2022/03/17 09:33:09;;;;;;;8.40;1.83;;;;;;;8.37;68.08;102874.47;4991498;28;20034;-71
2022/03/17 09:35:35;;;;;;;9.93;1.98;;;;;;;8.38;68.44;102877.03;4991293;28;20022;-74
2022/03/17 09:38:04;;;;;;;11.73;1.65;;;;;;;8.42;68.93;102890.94;4990559;28;20057;-71
2022/03/17 09:40:30;;;;;;;8.40;1.70;;;;;;;8.44;69.30;102895.22;4987931;28;20027;-71
2022/03/17 09:45:43;;;;;;;7.97;1.92;;;;;;;8.53;68.41;102894.06;4990632;28;20414;-71
2022/03/17 09:48:11;;;;;;;11.13;1.80;;;;;;;8.56;68.65;102900.97;4991954;28;20057;-71
2022/03/17 09:50:37;;;;;;;8.35;1.50;;;;;;;8.57;68.75;102898.31;4989078;28;20081;-71
2022/03/17 09:53:02;;;;;;;10.70;1.65;;;;;;;8.60;68.71;102906.06;4991429;28;20109;-72
2022/03/17 09:55:28;;;;;;;12.25;2.25;;;;;;;8.60;68.71;102903.44;4990078;28;20133;-72
2022/03/17 09:57:53;;;;;;;13.82;2.13;;;;;;;8.64;68.72;102912.06;4990412;28;20049;-73
2022/03/17 10:00:18;;;;;;;9.55;1.95;;;;;;;8.68;68.29;102914.53;4991072;28;20121;-73
2022/03/17 10:02:44;;;;;;;13.48;1.88;;;;;;;8.68;68.74;102929.44;4991108;28;20026;-72
2022/03/17 10:05:11;;;;;;;14.55;2.20;;;;;;;8.69;68.32;102939.88;4990390;28;20076;-73
2022/03/17 10:07:37;;;;;;;8.85;1.88;;;;;;;8.69;67.77;102947.75;4991444;28;20026;-72
2022/03/17 10:10:03;;;;;;;11.32;1.67;;;;;;;8.76;68.84;102946.63;4991367;28;20065;-73
2022/03/17 10:12:30;;;;;;;12.25;2.00;;;;;;;8.78;68.62;102947.44;4990501;28;20037;-73
2022/03/17 10:14:56;;;;;;;8.57;1.80;;;;;;;8.83;67.95;102955.19;4988498;28;20037;-72
2022/03/17 10:17:32;;;;;;;9.02;1.95;;;;;;;8.87;69.05;102955.94;4990430;28;20391;-73
2022/03/17 10:20:12;;;;;;;8.05;1.63;;;;;;;8.92;68.49;102960.13;4990090;28;20701;-73
2022/03/17 10:22:45;;;;;;;10.07;1.98;;;;;;;8.95;67.92;102969.69;4990349;28;20018;-73
2022/03/17 10:25:25;;;;;;;10.32;1.98;;;;;;;8.95;67.15;102972.31;4989312;28;20042;-73
2022/03/17 10:27:54;;;;;;;11.20;1.85;;;;;;;8.98;67.22;102980.06;4989589;28;20033;-73
2022/03/17 10:30:35;;;;;;;7.97;2.35;;;;;;;9.04;68.59;102980.72;4990112;28;20030;-73
2022/03/17 10:33:19;;;;;;;10.32;2.00;;;;;;;9.09;67.24;102988.44;4989320;28;20057;-73
2022/03/17 10:35:46;;;;;;;8.85;1.95;;;;;;;9.14;67.34;102988.28;4990436;28;20378;-72
2022/03/17 10:38:16;;;;;;;8.25;1.95;;;;;;;9.16;67.22;102989.94;4989280;28;20034;-73
2022/03/17 10:40:43;;;;;;;8.23;1.80;;;;;;;9.19;66.30;103002.97;4989626;28;20117;-73
2022/03/17 10:43:24;;;;;;;9.40;1.92;;;;;;;9.22;66.17;103002.91;4989913;28;20073;-73
2022/03/17 10:46:20;;;;;;;9.38;1.83;;;;;;;9.25;67.46;103002.81;4988528;28;20033;-73
2022/03/17 10:49:02;;;;;;;10.00;2.05;;;;;;;9.23;65.94;103007.25;4989265;28;20461;-73
2022/03/17 10:51:31;;;;;;;10.68;2.30;;;;;;;9.21;65.53;103009.06;4990807;28;20033;-73
2022/03/17 10:54:07;;;;;;;7.90;2.00;;;;;;;9.22;66.22;103018.66;4989640;28;20026;-73
2022/03/17 10:56:35;;;;;;;10.15;1.95;;;;;;;9.17;65.70;103028.44;4991077;28;20497;-73
2022/03/17 10:59:05;;;;;;;7.40;2.10;;;;;;;9.15;65.62;103030.25;4989922;28;20026;-73
2022/03/17 11:01:45;;;;;;;11.13;2.10;;;;;;;9.17;66.31;103041.56;4989185;28;20483;-73
2022/03/17 11:04:12;;;;;;;13.80;2.20;;;;;;;9.15;66.21;103046.00;4988708;28;20084;-73
2022/03/17 11:06:39;;;;;;;11.07;1.88;;;;;;;9.10;64.61;103040.06;4958027;28;20026;-73
2022/03/17 11:09:08;;;;;;;12.65;2.00;;;;;;;9.14;63.64;103048.69;4999898;28;20030;-73
2022/03/17 11:11:39;;;;;;;12.15;1.90;;;;;;;9.19;63.98;103057.28;4998209;28;20048;-73
2022/03/17 11:14:06;;;;;;;9.20;1.85;;;;;;;9.20;64.29;103054.59;4994426;28;20238;-73
2022/03/17 11:16:51;;;;;;;7.75;1.50;;;;;;;9.28;64.27;103052.59;5003903;28;20026;-73
2022/03/17 11:19:18;;;;;;;8.32;1.98;;;;;;;9.32;62.70;103069.97;4994250;28;20033;-73
2022/03/17 11:21:46;;;;;;;11.82;1.60;;;;;;;9.35;63.13;103064.63;4988465;28;20022;-73
2022/03/17 11:24:21;;;;;;;8.00;1.70;;;;;;;9.39;63.29;103071.50;4990298;28;20026;-72
2022/03/17 11:26:47;;;;;;;8.23;1.70;;;;;;;9.44;63.92;103066.06;4990368;28;20085;-73
2022/03/17 11:29:14;;;;;;;7.40;2.00;;;;;;;9.48;62.70;103072.09;4989466;28;20455;-73
2022/03/17 11:31:58;;;;;;;8.65;1.90;;;;;;;9.55;63.70;103073.59;4990050;28;20026;-72
2022/03/17 11:34:38;;;;;;;11.07;2.30;;;;;;;9.61;64.02;103073.41;4990262;28;20038;-73
2022/03/17 11:37:22;;;;;;;12.40;2.30;;;;;;;9.68;63.55;103077.53;4988318;28;20061;-72
2022/03/17 11:39:56;;;;;;;6.28;2.00;;;;;;;9.71;61.90;103074.81;4989490;28;20121;-72